Carnival Vista — 3EMB9 — position and weather

sailwx.info

Track history (hours):
 
Tides and Currents Weather Stations Pressure Air Temp Water Temp Dewpoint Dewpoint Depression Visibility Wind Speed Wind Dir Waves Ship Positions

Carnival Vista

Last reported at 2018-May-20 19:00 UTC. Time now 2018-May-20 21:14 UTC.
Position N 24°18' W 074°06'.

Length 324 m; draft 8.5 m.

Type: Passenger vessel. MMSI: 356883000.

Wind from 090 at 30 knots

Barometer 1018.0 mb
Air temperature 27.0 ° C
Visibility: greater than 10.8 NM
Dewpoint 24.1 ° C
Water temperature 26.0 ° C

Date/timePositionNaut miles runAvg speedWind from/ knotsBaromVisibWave heightAir tempDewpointWater temp
2018-May-20 19:00N 24°18' W 074°06'13815.4 090 / 301018.010.8 27.024.126.0
2018-May-20 10:00N 25°36' W 076°12'3819.2 100 / 251019.0 5.4 27.024.127.0
2018-May-20 08:00N 25°42' W 076°54'13715.7 090 / 251018.010.8 26.023.126.0
2018-May-19 23:12N 26°09' W 079°24'522.1
2018-May-19 23:00N 26°06' W 079°28'1122.2
2018-May-19 22:30N 25°59' W 079°37'918.5
2018-May-19 22:00N 25°54' W 079°46'917.7
2018-May-19 21:31N 25°51' W 079°55'917.3
2018-May-19 21:00N 25°47' W 080°03'510.3
2018-May-19 20:30N 25°46' W 080°09'1 2.1
2018-May-19 19:59N 25°47' W 080°10'0 0.0
2018-May-19 19:29N 25°47' W 080°10'0 0.0
2018-May-19 18:59N 25°47' W 080°10'0 0.0
2018-May-19 18:29N 25°47' W 080°10'0 0.0
2018-May-19 17:59N 25°47' W 080°10'0 0.0
2018-May-19 17:29N 25°47' W 080°10'0 0.0
2018-May-19 16:59N 25°47' W 080°10'0 0.0
2018-May-19 16:29N 25°47' W 080°10'0 0.0
2018-May-19 15:59N 25°47' W 080°10'0 0.0
2018-May-19 15:29N 25°47' W 080°10'0 0.0
2018-May-19 14:59N 25°47' W 080°10'0 0.0
2018-May-19 14:29N 25°47' W 080°10'0 0.0
2018-May-19 13:59N 25°47' W 080°10'0 0.0
2018-May-19 13:29N 25°47' W 080°10'0 0.0
2018-May-19 12:59N 25°47' W 080°10'0 0.0
2018-May-19 12:29N 25°47' W 080°10'0 0.0
2018-May-19 11:59N 25°47' W 080°10'0 0.0
2018-May-19 11:29N 25°47' W 080°10'0 0.0
2018-May-19 10:59N 25°47' W 080°10'0 0.0
2018-May-19 10:29N 25°47' W 080°10'0 0.0
2018-May-19 09:59N 25°47' W 080°10'0 0.0
2018-May-19 09:29N 25°47' W 080°10'0 0.0
2018-May-19 09:00N 25°47' W 080°10'1 1.8
2018-May-19 08:30N 25°47' W 080°11'2 4.5
2018-May-19 08:00N 25°46' W 080°09'510.2
2018-May-19 07:30N 25°47' W 080°03'612.3
2018-May-19 07:00N 25°42' W 079°59'816.7
2018-May-19 06:30N 25°36' W 079°53'917.7
2018-May-19 06:00N 25°29' W 079°48'1418.3
2018-May-19 05:15N 25°17' W 079°39'36016.2
2018-May-18 07:00N 22°24' W 085°24'7819.5 150 / 151012.010.8 27.025.626.0
2018-May-18 03:00N 21°24' W 086°18'6517.6 140 / 221013.0 27.022.628.0
2018-May-17 23:18N 20°32' W 086°60'411.2
2018-May-17 22:59N 20°29' W 086°59'0 0.9
2018-May-17 22:29N 20°29' W 086°59'0 0.0
2018-May-17 21:59N 20°29' W 086°59'0 0.0
2018-May-17 21:29N 20°29' W 086°59'0 0.0
2018-May-17 20:59N 20°29' W 086°59'0 0.0
2018-May-17 20:29N 20°29' W 086°59'0 0.0
2018-May-17 19:59N 20°29' W 086°59'0 0.0
2018-May-17 19:29N 20°29' W 086°59'0 0.0
2018-May-17 18:59N 20°29' W 086°59'0 0.0
2018-May-17 18:29N 20°29' W 086°59'0 0.0
2018-May-17 17:56N 20°29' W 086°59'0 0.0
2018-May-17 17:29N 20°29' W 086°59'0 0.0
2018-May-17 16:59N 20°29' W 086°59'0 0.0
2018-May-17 16:29N 20°29' W 086°59'0 0.0
2018-May-17 15:59N 20°29' W 086°59'0 0.0
2018-May-17 15:29N 20°29' W 086°59'0 0.0
2018-May-17 14:59N 20°29' W 086°59'0 0.0
2018-May-17 14:29N 20°29' W 086°59'0 0.0
2018-May-17 13:59N 20°29' W 086°59'3 5.2
2018-May-17 13:30N 20°31' W 086°59'5 9.9
2018-May-17 13:00N 20°35' W 086°56'714.4
2018-May-17 12:30N 20°40' W 086°51'1428.1
2018-May-17 12:00N 20°36' W 086°36'9719.5 140 / 171011.810.8 27.024.125.0
2018-May-17 07:00N 20°18' W 084°54'8822.0 100 / 231011.010.8 27.024.126.0
2018-May-17 03:00N 19°54' W 083°24'144 8.5 110 / 241014.0 27.024.127.0
2018-May-16 10:00N 19°06' W 081°00'25110.5 140 / 221011.0 5.4 27.024.125.0
2018-May-15 10:00N 18°42' W 076°36'4615.5 110 / 251012.810.8 28.025.226.0
2018-May-15 07:00N 19°06' W 075°54'12210.2 090 / 81014.010.8 27.024.126.0
2018-May-14 19:00N 21°06' W 075°30'36617.5 090 / 111014.010.8 27.025.626.0
2018-May-13 22:03N 25°40' W 079°54'114.1
2018-May-13 22:00N 25°40' W 079°55'714.1
2018-May-13 21:30N 25°44' W 080°01'611.1
2018-May-13 21:01N 25°45' W 080°07'4 7.6
2018-May-13 20:30N 25°47' W 080°11'1 1.1
2018-May-13 19:56N 25°47' W 080°10'0 0.0
2018-May-13 19:29N 25°47' W 080°10'0 0.0
2018-May-13 18:59N 25°47' W 080°10'0 0.0
2018-May-13 18:29N 25°47' W 080°10'0 0.0
2018-May-13 17:59N 25°47' W 080°10'0 0.0
2018-May-13 17:29N 25°47' W 080°10'0 0.0
2018-May-13 16:59N 25°47' W 080°10'0 0.0
2018-May-13 16:29N 25°47' W 080°10'0 0.0
2018-May-13 15:59N 25°47' W 080°10'0 0.0
2018-May-13 15:29N 25°47' W 080°10'0 0.0
2018-May-13 14:59N 25°47' W 080°10'0 0.0
2018-May-13 14:29N 25°47' W 080°10'0 0.0
2018-May-13 13:59N 25°47' W 080°10'0 0.0
2018-May-13 13:29N 25°47' W 080°10'0 0.0
2018-May-13 12:59N 25°47' W 080°10'0 0.0
2018-May-13 12:29N 25°47' W 080°10'0 0.0
2018-May-13 11:59N 25°47' W 080°10'0 0.0
2018-May-13 11:29N 25°47' W 080°10'0 0.0
2018-May-13 10:59N 25°47' W 080°10'0 0.0
2018-May-13 10:29N 25°47' W 080°10'0 0.0
2018-May-13 09:59N 25°47' W 080°10'0 0.0
2018-May-13 09:29N 25°47' W 080°10'0 0.0
2018-May-13 09:01N 25°47' W 080°10'1 2.4
2018-May-13 08:30N 25°46' W 080°09'511.1
2018-May-13 08:00N 25°47' W 080°03'611.1
2018-May-13 07:30N 25°43' W 079°59'816.2
2018-May-13 07:00N 25°36' W 079°54'815.8
2018-May-13 06:30N 25°30' W 079°48'815.7
2018-May-13 06:00N 25°24' W 079°42'036.6
2018-May-13 06:00N 25°24' W 079°42'5618.8 090 / 151013.010.8 26.023.126.0
2018-May-13 03:00N 24°30' W 079°24'11917.0 080 / 211017.0 27.022.626.0
2018-May-12 20:00N 22°42' W 078°30'13917.4 090 / 151015.010.8 27.025.626.0
2018-May-12 12:00N 21°36' W 076°18'7318.4 090 / 201016.0 5.4 28.025.226.0
2018-May-12 08:00N 21°06' W 075°06'19516.2 090 / 161015.010.8 27.024.126.0
2018-May-11 20:00N 17°54' W 074°30'17619.6 090 / 201015.010.8 27.024.126.0
2018-May-11 11:00N 15°36' W 072°36'5513.6 090 / 251014.010.8
2018-May-11 07:00N 14°54' W 072°00'7619.0 090 / 251014.010.8 27.024.126.0
2018-May-11 03:00N 13°54' W 071°12'   080 / 241014.0 27.025.626.0
Track history (hours):
 
Tides and Currents Weather Stations Pressure Air Temp Water Temp Dewpoint Dewpoint Depression Visibility Wind Speed Wind Dir Waves Ship Positions

Carnival Vista

Last reported at 2018-May-20 19:00 UTC. Time now 2018-May-20 21:14 UTC.
Position N 24°18' W 074°06'.

Length 324 m; draft 8.5 m.

Type: Passenger vessel. MMSI: 356883000.

Wind from 090 at 30 knots

Barometer 1018.0 mb
Air temperature 27.0 ° C
Visibility: greater than 10.8 NM
Dewpoint 24.1 ° C
Water temperature 26.0 ° C

Date/timePositionNaut miles runAvg speedWind from/ knotsBaromVisibWave heightAir tempDewpointWater temp
2018-May-20 19:00N 24°18' W 074°06'13815.4 090 / 301018.010.8 27.024.126.0
2018-May-20 10:00N 25°36' W 076°12'3819.2 100 / 251019.0 5.4 27.024.127.0
2018-May-20 08:00N 25°42' W 076°54'13715.7 090 / 251018.010.8 26.023.126.0
2018-May-19 23:12N 26°09' W 079°24'522.1
2018-May-19 23:00N 26°06' W 079°28'1122.2
2018-May-19 22:30N 25°59' W 079°37'918.5
2018-May-19 22:00N 25°54' W 079°46'917.7
2018-May-19 21:31N 25°51' W 079°55'917.3
2018-May-19 21:00N 25°47' W 080°03'510.3
2018-May-19 20:30N 25°46' W 080°09'1 2.1
2018-May-19 19:59N 25°47' W 080°10'0 0.0
2018-May-19 19:29N 25°47' W 080°10'0 0.0
2018-May-19 18:59N 25°47' W 080°10'0 0.0
2018-May-19 18:29N 25°47' W 080°10'0 0.0
2018-May-19 17:59N 25°47' W 080°10'0 0.0
2018-May-19 17:29N 25°47' W 080°10'0 0.0
2018-May-19 16:59N 25°47' W 080°10'0 0.0
2018-May-19 16:29N 25°47' W 080°10'0 0.0
2018-May-19 15:59N 25°47' W 080°10'0 0.0
2018-May-19 15:29N 25°47' W 080°10'0 0.0
2018-May-19 14:59N 25°47' W 080°10'0 0.0
2018-May-19 14:29N 25°47' W 080°10'0 0.0
2018-May-19 13:59N 25°47' W 080°10'0 0.0
2018-May-19 13:29N 25°47' W 080°10'0 0.0
2018-May-19 12:59N 25°47' W 080°10'0 0.0
2018-May-19 12:29N 25°47' W 080°10'0 0.0
2018-May-19 11:59N 25°47' W 080°10'0 0.0
2018-May-19 11:29N 25°47' W 080°10'0 0.0
2018-May-19 10:59N 25°47' W 080°10'0 0.0
2018-May-19 10:29N 25°47' W 080°10'0 0.0
2018-May-19 09:59N 25°47' W 080°10'0 0.0
2018-May-19 09:29N 25°47' W 080°10'0 0.0
2018-May-19 09:00N 25°47' W 080°10'1 1.8
2018-May-19 08:30N 25°47' W 080°11'2 4.5
2018-May-19 08:00N 25°46' W 080°09'510.2
2018-May-19 07:30N 25°47' W 080°03'612.3
2018-May-19 07:00N 25°42' W 079°59'816.7
2018-May-19 06:30N 25°36' W 079°53'917.7
2018-May-19 06:00N 25°29' W 079°48'1418.3
2018-May-19 05:15N 25°17' W 079°39'36016.2
2018-May-18 07:00N 22°24' W 085°24'7819.5 150 / 151012.010.8 27.025.626.0
2018-May-18 03:00N 21°24' W 086°18'6517.6 140 / 221013.0 27.022.628.0
2018-May-17 23:18N 20°32' W 086°60'411.2
2018-May-17 22:59N 20°29' W 086°59'0 0.9
2018-May-17 22:29N 20°29' W 086°59'0 0.0
2018-May-17 21:59N 20°29' W 086°59'0 0.0
2018-May-17 21:29N 20°29' W 086°59'0 0.0
2018-May-17 20:59N 20°29' W 086°59'0 0.0
2018-May-17 20:29N 20°29' W 086°59'0 0.0
2018-May-17 19:59N 20°29' W 086°59'0 0.0
2018-May-17 19:29N 20°29' W 086°59'0 0.0
2018-May-17 18:59N 20°29' W 086°59'0 0.0
2018-May-17 18:29N 20°29' W 086°59'0 0.0
2018-May-17 17:56N 20°29' W 086°59'0 0.0
2018-May-17 17:29N 20°29' W 086°59'0 0.0
2018-May-17 16:59N 20°29' W 086°59'0 0.0
2018-May-17 16:29N 20°29' W 086°59'0 0.0
2018-May-17 15:59N 20°29' W 086°59'0 0.0
2018-May-17 15:29N 20°29' W 086°59'0 0.0
2018-May-17 14:59N 20°29' W 086°59'0 0.0
2018-May-17 14:29N 20°29' W 086°59'0 0.0
2018-May-17 13:59N 20°29' W 086°59'3 5.2
2018-May-17 13:30N 20°31' W 086°59'5 9.9
2018-May-17 13:00N 20°35' W 086°56'714.4
2018-May-17 12:30N 20°40' W 086°51'1428.1
2018-May-17 12:00N 20°36' W 086°36'9719.5 140 / 171011.810.8 27.024.125.0
2018-May-17 07:00N 20°18' W 084°54'8822.0 100 / 231011.010.8 27.024.126.0
2018-May-17 03:00N 19°54' W 083°24'144 8.5 110 / 241014.0 27.024.127.0
2018-May-16 10:00N 19°06' W 081°00'25110.5 140 / 221011.0 5.4 27.024.125.0
2018-May-15 10:00N 18°42' W 076°36'4615.5 110 / 251012.810.8 28.025.226.0
2018-May-15 07:00N 19°06' W 075°54'12210.2 090 / 81014.010.8 27.024.126.0
2018-May-14 19:00N 21°06' W 075°30'36617.5 090 / 111014.010.8 27.025.626.0
2018-May-13 22:03N 25°40' W 079°54'114.1
2018-May-13 22:00N 25°40' W 079°55'714.1
2018-May-13 21:30N 25°44' W 080°01'611.1
2018-May-13 21:01N 25°45' W 080°07'4 7.6
2018-May-13 20:30N 25°47' W 080°11'1 1.1
2018-May-13 19:56N 25°47' W 080°10'0 0.0
2018-May-13 19:29N 25°47' W 080°10'0 0.0
2018-May-13 18:59N 25°47' W 080°10'0 0.0
2018-May-13 18:29N 25°47' W 080°10'0 0.0
2018-May-13 17:59N 25°47' W 080°10'0 0.0
2018-May-13 17:29N 25°47' W 080°10'0 0.0
2018-May-13 16:59N 25°47' W 080°10'0 0.0
2018-May-13 16:29N 25°47' W 080°10'0 0.0
2018-May-13 15:59N 25°47' W 080°10'0 0.0
2018-May-13 15:29N 25°47' W 080°10'0 0.0
2018-May-13 14:59N 25°47' W 080°10'0 0.0
2018-May-13 14:29N 25°47' W 080°10'0 0.0
2018-May-13 13:59N 25°47' W 080°10'0 0.0
2018-May-13 13:29N 25°47' W 080°10'0 0.0
2018-May-13 12:59N 25°47' W 080°10'0 0.0
2018-May-13 12:29N 25°47' W 080°10'0 0.0
2018-May-13 11:59N 25°47' W 080°10'0 0.0
2018-May-13 11:29N 25°47' W 080°10'0 0.0
2018-May-13 10:59N 25°47' W 080°10'0 0.0
2018-May-13 10:29N 25°47' W 080°10'0 0.0
2018-May-13 09:59N 25°47' W 080°10'0 0.0
2018-May-13 09:29N 25°47' W 080°10'0 0.0
2018-May-13 09:01N 25°47' W 080°10'1 2.4
2018-May-13 08:30N 25°46' W 080°09'511.1
2018-May-13 08:00N 25°47' W 080°03'611.1
2018-May-13 07:30N 25°43' W 079°59'816.2
2018-May-13 07:00N 25°36' W 079°54'815.8
2018-May-13 06:30N 25°30' W 079°48'815.7
2018-May-13 06:00N 25°24' W 079°42'036.6
2018-May-13 06:00N 25°24' W 079°42'5618.8 090 / 151013.010.8 26.023.126.0
2018-May-13 03:00N 24°30' W 079°24'11917.0 080 / 211017.0 27.022.626.0
2018-May-12 20:00N 22°42' W 078°30'13917.4 090 / 151015.010.8 27.025.626.0
2018-May-12 12:00N 21°36' W 076°18'7318.4 090 / 201016.0 5.4 28.025.226.0
2018-May-12 08:00N 21°06' W 075°06'19516.2 090 / 161015.010.8 27.024.126.0
2018-May-11 20:00N 17°54' W 074°30'17619.6 090 / 201015.010.8 27.024.126.0
2018-May-11 11:00N 15°36' W 072°36'5513.6 090 / 251014.010.8
2018-May-11 07:00N 14°54' W 072°00'7619.0 090 / 251014.010.8 27.024.126.0
2018-May-11 03:00N 13°54' W 071°12'   080 / 241014.0 27.025.626.0

Dump ship's entire track history